sensor_id;sensor_type;location;lat;lon;timestamp;pressure;altitude;pressure_sealevel;temperature;humidity
85130;BME280;75492;49.310;20.046;2024-02-26T00:02:08;90957.84;;;4.02;87.97
85130;BME280;75492;49.310;20.046;2024-02-26T00:07:09;90952.97;;;4.25;87.41
85130;BME280;75492;49.310;20.046;2024-02-26T00:12:11;90944.50;;;4.11;86.92
85130;BME280;75492;49.310;20.046;2024-02-26T00:17:14;90958.31;;;4.04;87.77
85130;BME280;75492;49.310;20.046;2024-02-26T00:22:15;90943.88;;;4.26;86.45
85130;BME280;75492;49.310;20.046;2024-02-26T00:27:17;90945.88;;;3.96;88.31
85130;BME280;75492;49.310;20.046;2024-02-26T00:32:19;90925.59;;;4.24;87.38
85130;BME280;75492;49.310;20.046;2024-02-26T00:37:21;90928.50;;;3.98;87.66
85130;BME280;75492;49.310;20.046;2024-02-26T00:42:22;90933.00;;;4.19;87.34
85130;BME280;75492;49.310;20.046;2024-02-26T00:47:25;90921.44;;;4.03;88.02
85130;BME280;75492;49.310;20.046;2024-02-26T00:52:26;90916.56;;;4.05;88.13
85130;BME280;75492;49.310;20.046;2024-02-26T00:57:27;90907.84;;;4.16;87.98
85130;BME280;75492;49.310;20.046;2024-02-26T01:02:30;90895.69;;;4.15;87.17
85130;BME280;75492;49.310;20.046;2024-02-26T01:07:32;90892.94;;;4.36;86.86
85130;BME280;75492;49.310;20.046;2024-02-26T01:12:33;90893.25;;;4.22;86.54
85130;BME280;75492;49.310;20.046;2024-02-26T01:17:36;90913.75;;;4.22;86.52
85130;BME280;75492;49.310;20.046;2024-02-26T01:22:37;90910.13;;;3.93;87.71
85130;BME280;75492;49.310;20.046;2024-02-26T01:27:39;90905.72;;;4.10;87.40
85130;BME280;75492;49.310;20.046;2024-02-26T01:32:42;90908.97;;;4.15;87.24
85130;BME280;75492;49.310;20.046;2024-02-26T01:37:44;90913.03;;;4.00;87.39
85130;BME280;75492;49.310;20.046;2024-02-26T01:42:45;90909.16;;;3.77;88.72
85130;BME280;75492;49.310;20.046;2024-02-26T01:47:49;90902.50;;;3.50;89.71
85130;BME280;75492;49.310;20.046;2024-02-26T01:52:51;90909.06;;;3.86;88.68
85130;BME280;75492;49.310;20.046;2024-02-26T01:57:54;90908.44;;;3.68;89.51
85130;BME280;75492;49.310;20.046;2024-02-26T02:02:57;90897.31;;;4.08;87.24
85130;BME280;75492;49.310;20.046;2024-02-26T02:07:59;90908.38;;;4.10;87.65
85130;BME280;75492;49.310;20.046;2024-02-26T02:13:00;90910.72;;;4.11;87.01
85130;BME280;75492;49.310;20.046;2024-02-26T02:18:04;90900.56;;;3.92;87.41
85130;BME280;75492;49.310;20.046;2024-02-26T02:23:06;90920.34;;;4.04;87.22
85130;BME280;75492;49.310;20.046;2024-02-26T02:28:08;90934.06;;;4.06;87.71
85130;BME280;75492;49.310;20.046;2024-02-26T02:33:10;90934.28;;;4.00;87.00
85130;BME280;75492;49.310;20.046;2024-02-26T02:38:13;90938.38;;;3.77;88.31
85130;BME280;75492;49.310;20.046;2024-02-26T02:43:14;90939.72;;;3.83;88.27
85130;BME280;75492;49.310;20.046;2024-02-26T02:48:16;90942.91;;;3.97;87.72
85130;BME280;75492;49.310;20.046;2024-02-26T02:53:19;90932.19;;;4.06;86.96
85130;BME280;75492;49.310;20.046;2024-02-26T02:58:20;90944.59;;;3.60;88.59
85130;BME280;75492;49.310;20.046;2024-02-26T03:03:21;90941.47;;;4.00;87.03
85130;BME280;75492;49.310;20.046;2024-02-26T03:08:24;90938.94;;;4.04;86.37
85130;BME280;75492;49.310;20.046;2024-02-26T03:13:25;90938.38;;;3.77;87.55
85130;BME280;75492;49.310;20.046;2024-02-26T03:18:27;90934.75;;;3.61;88.18
85130;BME280;75492;49.310;20.046;2024-02-26T03:23:29;90939.41;;;3.85;87.24
85130;BME280;75492;49.310;20.046;2024-02-26T03:28:31;90930.22;;;3.40;88.09
85130;BME280;75492;49.310;20.046;2024-02-26T03:33:33;90938.84;;;3.58;88.22
85130;BME280;75492;49.310;20.046;2024-02-26T03:38:37;90931.94;;;3.36;88.64
85130;BME280;75492;49.310;20.046;2024-02-26T03:43:38;90932.34;;;3.47;87.72
85130;BME280;75492;49.310;20.046;2024-02-26T03:48:40;90922.84;;;3.16;88.59
85130;BME280;75492;49.310;20.046;2024-02-26T03:53:42;90915.44;;;3.30;87.92
85130;BME280;75492;49.310;20.046;2024-02-26T03:58:44;90921.53;;;3.31;87.55
85130;BME280;75492;49.310;20.046;2024-02-26T04:03:45;90921.16;;;3.41;87.69
85130;BME280;75492;49.310;20.046;2024-02-26T04:08:48;90915.78;;;3.50;87.31
85130;BME280;75492;49.310;20.046;2024-02-26T04:13:49;90903.19;;;3.38;87.05
85130;BME280;75492;49.310;20.046;2024-02-26T04:18:51;90901.56;;;3.46;87.50
85130;BME280;75492;49.310;20.046;2024-02-26T04:23:53;90898.59;;;3.26;87.92
85130;BME280;75492;49.310;20.046;2024-02-26T04:28:55;90885.53;;;3.42;87.00
85130;BME280;75492;49.310;20.046;2024-02-26T04:33:56;90900.41;;;3.35;87.84
85130;BME280;75492;49.310;20.046;2024-02-26T04:38:59;90888.06;;;3.39;87.15
85130;BME280;75492;49.310;20.046;2024-02-26T04:44:01;90886.88;;;3.48;88.26
85130;BME280;75492;49.310;20.046;2024-02-26T04:49:02;90891.88;;;3.50;87.30
85130;BME280;75492;49.310;20.046;2024-02-26T04:54:05;90889.41;;;3.66;87.49
85130;BME280;75492;49.310;20.046;2024-02-26T04:59:06;90874.06;;;3.50;87.90
85130;BME280;75492;49.310;20.046;2024-02-26T05:04:07;90867.19;;;3.70;86.90
85130;BME280;75492;49.310;20.046;2024-02-26T05:09:10;90884.59;;;3.59;87.48
85130;BME280;75492;49.310;20.046;2024-02-26T05:14:12;90871.41;;;3.50;87.37
85130;BME280;75492;49.310;20.046;2024-02-26T05:19:13;90876.91;;;3.24;88.74
85130;BME280;75492;49.310;20.046;2024-02-26T05:24:16;90873.69;;;3.61;87.35
85130;BME280;75492;49.310;20.046;2024-02-26T05:29:17;90878.06;;;3.77;86.89
85130;BME280;75492;49.310;20.046;2024-02-26T05:34:18;90880.28;;;3.54;87.88
85130;BME280;75492;49.310;20.046;2024-02-26T05:39:21;90875.06;;;3.79;86.98
85130;BME280;75492;49.310;20.046;2024-02-26T05:44:23;90834.66;;;3.73;87.01
85130;BME280;75492;49.310;20.046;2024-02-26T05:49:27;90855.09;;;3.61;87.28
85130;BME280;75492;49.310;20.046;2024-02-26T05:54:29;90845.94;;;3.70;87.73
85130;BME280;75492;49.310;20.046;2024-02-26T05:59:31;90872.16;;;3.72;87.93
85130;BME280;75492;49.310;20.046;2024-02-26T06:04:32;90865.72;;;3.94;87.95
85130;BME280;75492;49.310;20.046;2024-02-26T06:09:35;90864.66;;;3.74;88.34
85130;BME280;75492;49.310;20.046;2024-02-26T06:14:36;90867.81;;;3.88;88.20
85130;BME280;75492;49.310;20.046;2024-02-26T06:19:37;90879.38;;;4.05;87.95
85130;BME280;75492;49.310;20.046;2024-02-26T06:24:40;90898.81;;;3.96;89.11
85130;BME280;75492;49.310;20.046;2024-02-26T06:29:41;90883.13;;;4.04;89.06
85130;BME280;75492;49.310;20.046;2024-02-26T06:34:43;90884.63;;;3.92;90.22
85130;BME280;75492;49.310;20.046;2024-02-26T06:39:46;90890.28;;;4.36;89.74
85130;BME280;75492;49.310;20.046;2024-02-26T06:44:47;90884.09;;;4.32;89.97
85130;BME280;75492;49.310;20.046;2024-02-26T06:49:48;90883.69;;;4.55;89.30
85130;BME280;75492;49.310;20.046;2024-02-26T06:54:51;90889.91;;;4.71;88.75
85130;BME280;75492;49.310;20.046;2024-02-26T06:59:53;90886.81;;;4.81;88.92
85130;BME280;75492;49.310;20.046;2024-02-26T07:04:54;90894.34;;;4.91;88.46
85130;BME280;75492;49.310;20.046;2024-02-26T07:09:57;90900.34;;;4.88;89.05
85130;BME280;75492;49.310;20.046;2024-02-26T07:14:59;90874.84;;;4.87;88.83
85130;BME280;75492;49.310;20.046;2024-02-26T07:20:00;90905.00;;;4.91;90.12
85130;BME280;75492;49.310;20.046;2024-02-26T07:25:04;90906.44;;;5.01;88.55
85130;BME280;75492;49.310;20.046;2024-02-26T07:30:06;90901.34;;;4.84;88.89
85130;BME280;75492;49.310;20.046;2024-02-26T07:35:08;90914.41;;;4.89;89.94
85130;BME280;75492;49.310;20.046;2024-02-26T07:40:11;90912.88;;;5.00;88.64
85130;BME280;75492;49.310;20.046;2024-02-26T07:45:13;90915.63;;;4.91;90.02
85130;BME280;75492;49.310;20.046;2024-02-26T07:50:14;90903.22;;;5.08;89.77
85130;BME280;75492;49.310;20.046;2024-02-26T07:55:17;90920.97;;;5.04;91.32
85130;BME280;75492;49.310;20.046;2024-02-26T08:00:19;90914.53;;;5.17;91.61
85130;BME280;75492;49.310;20.046;2024-02-26T08:05:20;90916.09;;;5.30;92.86
85130;BME280;75492;49.310;20.046;2024-02-26T08:10:23;90910.72;;;5.42;91.82
85130;BME280;75492;49.310;20.046;2024-02-26T08:15:25;90915.47;;;5.49;91.79
85130;BME280;75492;49.310;20.046;2024-02-26T08:20:26;90888.69;;;5.70;90.94
85130;BME280;75492;49.310;20.046;2024-02-26T08:25:29;90913.41;;;5.83;91.42
85130;BME280;75492;49.310;20.046;2024-02-26T08:30:30;90900.25;;;6.02;90.47
85130;BME280;75492;49.310;20.046;2024-02-26T08:35:31;90920.25;;;6.08;90.65
85130;BME280;75492;49.310;20.046;2024-02-26T08:40:34;90916.69;;;6.32;88.70
85130;BME280;75492;49.310;20.046;2024-02-26T08:45:36;90909.94;;;6.51;88.32
85130;BME280;75492;49.310;20.046;2024-02-26T08:50:37;90922.47;;;6.34;90.12
85130;BME280;75492;49.310;20.046;2024-02-26T08:55:40;90920.31;;;6.24;89.91
85130;BME280;75492;49.310;20.046;2024-02-26T09:00:41;90918.84;;;6.27;90.42
85130;BME280;75492;49.310;20.046;2024-02-26T09:05:43;90921.84;;;6.25;91.06
85130;BME280;75492;49.310;20.046;2024-02-26T09:10:46;90914.59;;;6.54;90.69
85130;BME280;75492;49.310;20.046;2024-02-26T09:15:47;90914.78;;;6.61;91.14
85130;BME280;75492;49.310;20.046;2024-02-26T09:20:48;90921.47;;;6.55;91.67
85130;BME280;75492;49.310;20.046;2024-02-26T09:25:51;90919.94;;;6.54;91.20
85130;BME280;75492;49.310;20.046;2024-02-26T09:30:52;90914.50;;;6.66;91.41
85130;BME280;75492;49.310;20.046;2024-02-26T09:35:54;90914.50;;;6.66;89.32
85130;BME280;75492;49.310;20.046;2024-02-26T09:40:57;90921.94;;;6.57;90.65
85130;BME280;75492;49.310;20.046;2024-02-26T09:45:59;90915.56;;;6.77;89.48
85130;BME280;75492;49.310;20.046;2024-02-26T09:51:01;90916.59;;;6.57;91.00
85130;BME280;75492;49.310;20.046;2024-02-26T09:56:06;90928.03;;;6.57;91.26
85130;BME280;75492;49.310;20.046;2024-02-26T10:01:11;90926.84;;;6.71;90.75
85130;BME280;75492;49.310;20.046;2024-02-26T10:06:13;90911.34;;;6.92;88.43
85130;BME280;75492;49.310;20.046;2024-02-26T10:11:16;90910.72;;;6.83;90.71
85130;BME280;75492;49.310;20.046;2024-02-26T10:16:18;90942.88;;;6.87;90.82
85130;BME280;75492;49.310;20.046;2024-02-26T10:21:20;90939.44;;;7.02;89.32
85130;BME280;75492;49.310;20.046;2024-02-26T10:26:24;90935.31;;;7.04;89.45
85130;BME280;75492;49.310;20.046;2024-02-26T10:31:25;90928.66;;;7.14;90.10
85130;BME280;75492;49.310;20.046;2024-02-26T10:36:26;90942.88;;;7.18;90.48
85130;BME280;75492;49.310;20.046;2024-02-26T10:41:29;90928.41;;;7.19;90.17
85130;BME280;75492;49.310;20.046;2024-02-26T10:46:31;90940.13;;;7.30;89.66
85130;BME280;75492;49.310;20.046;2024-02-26T10:51:34;90922.50;;;7.45;89.15
85130;BME280;75492;49.310;20.046;2024-02-26T10:56:40;90925.31;;;7.68;84.04
85130;BME280;75492;49.310;20.046;2024-02-26T11:01:43;90925.59;;;7.83;89.07
85130;BME280;75492;49.310;20.046;2024-02-26T11:06:45;90916.22;;;7.73;87.95
85130;BME280;75492;49.310;20.046;2024-02-26T11:11:48;90925.94;;;7.62;88.16
85130;BME280;75492;49.310;20.046;2024-02-26T11:16:51;90922.13;;;7.63;88.49
85130;BME280;75492;49.310;20.046;2024-02-26T11:21:52;90917.22;;;7.65;88.66
85130;BME280;75492;49.310;20.046;2024-02-26T11:26:57;90924.19;;;7.69;88.91
85130;BME280;75492;49.310;20.046;2024-02-26T11:32:00;90937.81;;;7.80;88.05
85130;BME280;75492;49.310;20.046;2024-02-26T11:37:09;90939.56;;;7.92;86.63
85130;BME280;75492;49.310;20.046;2024-02-26T11:42:15;90946.31;;;7.86;86.53
85130;BME280;75492;49.310;20.046;2024-02-26T11:47:18;90923.31;;;8.00;84.85
85130;BME280;75492;49.310;20.046;2024-02-26T11:52:20;90933.03;;;8.09;84.04
85130;BME280;75492;49.310;20.046;2024-02-26T11:57:26;90932.97;;;8.05;84.09
85130;BME280;75492;49.310;20.046;2024-02-26T12:02:44;90931.81;;;8.06;84.78
85130;BME280;75492;49.310;20.046;2024-02-26T12:07:46;90947.47;;;8.04;85.79
85130;BME280;75492;49.310;20.046;2024-02-26T12:12:49;90916.50;;;8.22;83.01
85130;BME280;75492;49.310;20.046;2024-02-26T12:17:53;90945.44;;;8.17;83.98
85130;BME280;75492;49.310;20.046;2024-02-26T12:22:56;90934.03;;;8.20;85.92
85130;BME280;75492;49.310;20.046;2024-02-26T12:27:59;90940.00;;;8.33;84.00
85130;BME280;75492;49.310;20.046;2024-02-26T12:33:01;90937.34;;;8.13;84.99
85130;BME280;75492;49.310;20.046;2024-02-26T12:38:03;90947.63;;;8.11;85.01
85130;BME280;75492;49.310;20.046;2024-02-26T12:43:07;90937.19;;;8.06;84.71
85130;BME280;75492;49.310;20.046;2024-02-26T12:48:09;90930.28;;;8.05;85.08
85130;BME280;75492;49.310;20.046;2024-02-26T12:53:11;90942.53;;;8.06;85.16
85130;BME280;75492;49.310;20.046;2024-02-26T12:58:14;90934.69;;;8.13;83.44
85130;BME280;75492;49.310;20.046;2024-02-26T13:03:16;90947.19;;;8.09;85.10
85130;BME280;75492;49.310;20.046;2024-02-26T13:08:19;90963.94;;;8.06;84.83
85130;BME280;75492;49.310;20.046;2024-02-26T13:13:22;90953.59;;;8.05;83.99
85130;BME280;75492;49.310;20.046;2024-02-26T13:18:27;90961.97;;;8.03;85.23
85130;BME280;75492;49.310;20.046;2024-02-26T13:23:28;90964.75;;;7.91;86.94
85130;BME280;75492;49.310;20.046;2024-02-26T13:28:31;90967.59;;;7.98;86.29
85130;BME280;75492;49.310;20.046;2024-02-26T13:33:33;90951.69;;;8.05;86.59
85130;BME280;75492;49.310;20.046;2024-02-26T13:38:35;90964.66;;;8.03;86.88
85130;BME280;75492;49.310;20.046;2024-02-26T13:43:37;90952.03;;;8.23;86.01
85130;BME280;75492;49.310;20.046;2024-02-26T13:48:39;90963.09;;;8.02;86.81
85130;BME280;75492;49.310;20.046;2024-02-26T13:53:40;90963.94;;;8.06;87.89
85130;BME280;75492;49.310;20.046;2024-02-26T13:58:43;90957.03;;;8.05;87.47
85130;BME280;75492;49.310;20.046;2024-02-26T14:03:45;90949.50;;;7.91;88.20
85130;BME280;75492;49.310;20.046;2024-02-26T14:08:46;90974.69;;;7.90;89.18
85130;BME280;75492;49.310;20.046;2024-02-26T14:13:49;90964.56;;;7.99;86.25
85130;BME280;75492;49.310;20.046;2024-02-26T14:18:50;90976.59;;;7.90;88.03
85130;BME280;75492;49.310;20.046;2024-02-26T14:23:51;90975.47;;;7.91;87.51
85130;BME280;75492;49.310;20.046;2024-02-26T14:28:54;90989.25;;;7.93;87.35
85130;BME280;75492;49.310;20.046;2024-02-26T14:33:56;90982.25;;;8.04;88.02
85130;BME280;75492;49.310;20.046;2024-02-26T14:38:57;90964.38;;;8.08;86.29
85130;BME280;75492;49.310;20.046;2024-02-26T14:44:00;90980.81;;;7.91;87.46
85130;BME280;75492;49.310;20.046;2024-02-26T14:49:01;90962.63;;;7.81;86.44
85130;BME280;75492;49.310;20.046;2024-02-26T14:54:03;90965.53;;;7.91;86.23
85130;BME280;75492;49.310;20.046;2024-02-26T14:59:06;90967.84;;;7.93;87.45
85130;BME280;75492;49.310;20.046;2024-02-26T15:04:07;90949.22;;;7.61;88.28
85130;BME280;75492;49.310;20.046;2024-02-26T15:09:09;90964.69;;;7.87;84.69
85130;BME280;75492;49.310;20.046;2024-02-26T15:14:12;90968.56;;;7.90;83.67
85130;BME280;75492;49.310;20.046;2024-02-26T15:19:13;90983.75;;;7.86;85.50
85130;BME280;75492;49.310;20.046;2024-02-26T15:24:15;91001.63;;;7.66;85.38
85130;BME280;75492;49.310;20.046;2024-02-26T15:29:17;90972.88;;;7.78;85.13
85130;BME280;75492;49.310;20.046;2024-02-26T15:34:19;90996.03;;;7.55;85.60
85130;BME280;75492;49.310;20.046;2024-02-26T15:39:20;91002.50;;;7.70;84.26
85130;BME280;75492;49.310;20.046;2024-02-26T15:44:23;90992.81;;;7.81;82.62
85130;BME280;75492;49.310;20.046;2024-02-26T15:49:24;90999.56;;;7.59;84.70
85130;BME280;75492;49.310;20.046;2024-02-26T15:54:26;91002.34;;;7.47;85.36
85130;BME280;75492;49.310;20.046;2024-02-26T15:59:29;91009.84;;;7.41;86.11
85130;BME280;75492;49.310;20.046;2024-02-26T16:04:30;91003.81;;;7.28;86.86
85130;BME280;75492;49.310;20.046;2024-02-26T16:09:31;91019.50;;;7.30;86.86
85130;BME280;75492;49.310;20.046;2024-02-26T16:14:41;91022.66;;;7.04;88.42
85130;BME280;75492;49.310;20.046;2024-02-26T16:19:45;91024.34;;;6.96;88.82
85130;BME280;75492;49.310;20.046;2024-02-26T16:24:47;91021.56;;;6.77;89.69
85130;BME280;75492;49.310;20.046;2024-02-26T16:29:51;91045.34;;;6.82;88.23
85130;BME280;75492;49.310;20.046;2024-02-26T16:34:52;91038.56;;;6.56;89.81
85130;BME280;75492;49.310;20.046;2024-02-26T16:39:54;91032.38;;;6.68;89.28
85130;BME280;75492;49.310;20.046;2024-02-26T16:45:00;91047.66;;;6.55;89.63
85130;BME280;75492;49.310;20.046;2024-02-26T16:50:01;91046.41;;;6.65;88.92
85130;BME280;75492;49.310;20.046;2024-02-26T16:55:03;91054.13;;;6.54;89.80
85130;BME280;75492;49.310;20.046;2024-02-26T17:00:07;91042.59;;;6.50;89.62
85130;BME280;75492;49.310;20.046;2024-02-26T17:05:09;91049.59;;;6.43;89.45
85130;BME280;75492;49.310;20.046;2024-02-26T17:10:10;91050.72;;;6.42;90.06
85130;BME280;75492;49.310;20.046;2024-02-26T17:15:13;91054.25;;;6.46;89.11
85130;BME280;75492;49.310;20.046;2024-02-26T17:20:14;91030.59;;;6.44;89.67
85130;BME280;75492;49.310;20.046;2024-02-26T17:25:16;91047.06;;;6.34;89.65
85130;BME280;75492;49.310;20.046;2024-02-26T17:30:19;91048.25;;;6.49;88.11
85130;BME280;75492;49.310;20.046;2024-02-26T17:35:20;91051.06;;;6.40;88.24
85130;BME280;75492;49.310;20.046;2024-02-26T17:40:22;91073.09;;;6.25;88.79
85130;BME280;75492;49.310;20.046;2024-02-26T17:45:25;91056.50;;;6.44;86.95
85130;BME280;75492;49.310;20.046;2024-02-26T17:50:26;91057.59;;;6.43;85.90
85130;BME280;75492;49.310;20.046;2024-02-26T17:55:28;91063.00;;;6.06;88.28
85130;BME280;75492;49.310;20.046;2024-02-26T18:00:31;91052.81;;;5.96;89.69
85130;BME280;75492;49.310;20.046;2024-02-26T18:05:32;91065.03;;;5.97;89.90
85130;BME280;75492;49.310;20.046;2024-02-26T18:11:16;91074.13;;;5.96;88.93
85130;BME280;75492;49.310;20.046;2024-02-26T18:16:06;91078.47;;;6.00;88.72
85130;BME280;75492;49.310;20.046;2024-02-26T18:21:07;91073.44;;;5.62;90.41
85130;BME280;75492;49.310;20.046;2024-02-26T18:26:09;91077.44;;;5.80;89.40
85130;BME280;75492;49.310;20.046;2024-02-26T18:31:11;91083.75;;;5.76;89.67
85130;BME280;75492;49.310;20.046;2024-02-26T18:36:13;91085.31;;;5.89;85.91
85130;BME280;75492;49.310;20.046;2024-02-26T18:41:18;91084.03;;;6.07;84.97
85130;BME280;75492;49.310;20.046;2024-02-26T18:46:21;91097.66;;;6.06;84.91
85130;BME280;75492;49.310;20.046;2024-02-26T18:51:22;91095.13;;;5.97;84.94
85130;BME280;75492;49.310;20.046;2024-02-26T18:56:24;91097.47;;;6.92;75.85
85130;BME280;75492;49.310;20.046;2024-02-26T19:01:27;91101.34;;;6.66;77.80
85130;BME280;75492;49.310;20.046;2024-02-26T19:06:28;91102.94;;;6.55;80.53
85130;BME280;75492;49.310;20.046;2024-02-26T19:11:30;91103.31;;;6.29;82.46
85130;BME280;75492;49.310;20.046;2024-02-26T19:16:33;91106.44;;;6.31;82.49
85130;BME280;75492;49.310;20.046;2024-02-26T19:21:35;91115.31;;;6.23;83.68
85130;BME280;75492;49.310;20.046;2024-02-26T19:26:40;91114.38;;;6.55;77.63
85130;BME280;75492;49.310;20.046;2024-02-26T19:31:43;91125.72;;;6.65;78.13
85130;BME280;75492;49.310;20.046;2024-02-26T19:36:44;91142.59;;;6.69;78.01
85130;BME280;75492;49.310;20.046;2024-02-26T19:41:45;91146.56;;;6.34;82.77
85130;BME280;75492;49.310;20.046;2024-02-26T19:46:48;91157.06;;;6.55;80.80
85130;BME280;75492;49.310;20.046;2024-02-26T19:51:49;91162.59;;;6.87;76.62
85130;BME280;75492;49.310;20.046;2024-02-26T19:56:51;91159.19;;;7.02;78.90
85130;BME280;75492;49.310;20.046;2024-02-26T20:01:54;91172.84;;;7.13;77.56
85130;BME280;75492;49.310;20.046;2024-02-26T20:06:55;91187.69;;;6.98;79.57
85130;BME280;75492;49.310;20.046;2024-02-26T20:11:57;91175.72;;;7.20;77.09
85130;BME280;75492;49.310;20.046;2024-02-26T20:16:59;91179.34;;;7.56;74.45
85130;BME280;75492;49.310;20.046;2024-02-26T20:22:01;91172.34;;;7.51;75.32
85130;BME280;75492;49.310;20.046;2024-02-26T20:27:03;91183.44;;;7.38;77.37
85130;BME280;75492;49.310;20.046;2024-02-26T20:32:06;91185.47;;;7.28;77.76
85130;BME280;75492;49.310;20.046;2024-02-26T20:37:08;91197.66;;;7.14;79.04
85130;BME280;75492;49.310;20.046;2024-02-26T20:42:09;91198.16;;;7.03;80.25
85130;BME280;75492;49.310;20.046;2024-02-26T20:47:13;91213.34;;;7.15;78.93
85130;BME280;75492;49.310;20.046;2024-02-26T20:52:14;91208.50;;;7.33;76.48
85130;BME280;75492;49.310;20.046;2024-02-26T20:57:15;91201.78;;;7.39;76.25
85130;BME280;75492;49.310;20.046;2024-02-26T21:02:18;91203.22;;;7.21;79.34
85130;BME280;75492;49.310;20.046;2024-02-26T21:07:19;91216.41;;;7.29;78.13
85130;BME280;75492;49.310;20.046;2024-02-26T21:12:21;91223.22;;;7.27;78.73
85130;BME280;75492;49.310;20.046;2024-02-26T21:17:23;91210.44;;;7.20;79.24
85130;BME280;75492;49.310;20.046;2024-02-26T21:22:25;91230.75;;;6.97;81.54
85130;BME280;75492;49.310;20.046;2024-02-26T21:27:26;91219.84;;;6.90;81.49
85130;BME280;75492;49.310;20.046;2024-02-26T21:32:29;91227.81;;;7.14;79.24
85130;BME280;75492;49.310;20.046;2024-02-26T21:37:30;91238.66;;;6.93;81.59
85130;BME280;75492;49.310;20.046;2024-02-26T21:42:32;91250.13;;;6.94;81.65
85130;BME280;75492;49.310;20.046;2024-02-26T21:47:34;91251.66;;;6.95;80.63
85130;BME280;75492;49.310;20.046;2024-02-26T21:52:37;91255.66;;;7.13;79.06
85130;BME280;75492;49.310;20.046;2024-02-26T21:57:38;91262.28;;;7.19;77.30
85130;BME280;75492;49.310;20.046;2024-02-26T22:02:42;91241.00;;;7.91;69.09
85130;BME280;75492;49.310;20.046;2024-02-26T22:07:43;91242.84;;;8.19;65.56
85130;BME280;75492;49.310;20.046;2024-02-26T22:12:45;91269.69;;;8.22;66.66
85130;BME280;75492;49.310;20.046;2024-02-26T22:17:47;91249.59;;;7.85;69.13
85130;BME280;75492;49.310;20.046;2024-02-26T22:22:49;91263.41;;;7.59;69.27
85130;BME280;75492;49.310;20.046;2024-02-26T22:27:50;91258.34;;;7.69;65.34
85130;BME280;75492;49.310;20.046;2024-02-26T22:32:53;91278.69;;;7.18;74.33
85130;BME280;75492;49.310;20.046;2024-02-26T22:37:54;91272.94;;;6.79;76.69
85130;BME280;75492;49.310;20.046;2024-02-26T22:42:56;91264.03;;;6.75;75.38
85130;BME280;75492;49.310;20.046;2024-02-26T22:47:58;91271.94;;;6.71;76.24
85130;BME280;75492;49.310;20.046;2024-02-26T22:53:00;91300.38;;;6.43;74.37
85130;BME280;75492;49.310;20.046;2024-02-26T22:58:01;91291.50;;;6.75;68.64
85130;BME280;75492;49.310;20.046;2024-02-26T23:03:04;91290.06;;;7.43;62.46
85130;BME280;75492;49.310;20.046;2024-02-26T23:08:06;91282.19;;;7.46;61.33
85130;BME280;75492;49.310;20.046;2024-02-26T23:13:07;91296.41;;;7.50;60.52
85130;BME280;75492;49.310;20.046;2024-02-26T23:18:10;91297.22;;;7.39;63.93
85130;BME280;75492;49.310;20.046;2024-02-26T23:23:12;91309.19;;;7.04;67.05
85130;BME280;75492;49.310;20.046;2024-02-26T23:28:13;91303.50;;;7.59;59.05
85130;BME280;75492;49.310;20.046;2024-02-26T23:33:16;91321.00;;;7.56;60.10
85130;BME280;75492;49.310;20.046;2024-02-26T23:38:17;91308.91;;;7.46;61.46
85130;BME280;75492;49.310;20.046;2024-02-26T23:43:19;91319.63;;;7.22;62.51
85130;BME280;75492;49.310;20.046;2024-02-26T23:48:21;91319.63;;;7.22;61.40
85130;BME280;75492;49.310;20.046;2024-02-26T23:53:23;91329.09;;;7.72;60.38
85130;BME280;75492;49.310;20.046;2024-02-26T23:58:24;91318.25;;;7.81;60.45
